AQQ10 IFIS: Internet Flight Information System
logo dgac
Miércoles 01 de Diciembre del 2021

Metar

Buscar por aerodromo o helipuerto
Ingrese nombre de aeródromo, localidad o designador OACI:


SPECI del 01-12-2021 a las 21:32 UTC
Para mayor información visite www.meteochile.cl
SPECI SCFT 012132Z AUTO 29017KT //// // ///////// 12/05 Q1015
Viento: dirección 290 grados, velocidad 17 nudos
Temperatura: 12 °C
Rocío: 5 °C
Humedad_relativa: 62%
Presión: 1015 hPa
SPECI del 01-12-2021 a las 21:29 UTC
Para mayor información visite www.meteochile.cl
SPECI SCFT 012129Z AUTO 29016G26KT //// // ///////// 13/04 Q1015
Viento: dirección 290 grados, velocidad 16 nudos, con ráfagas de velocidad máxima de 26Nudos
Temperatura: 13 °C
Rocío: 4 °C
Humedad_relativa: 54%
Presión: 1015 hPa
SPECI del 01-12-2021 a las 21:19 UTC
Para mayor información visite www.meteochile.cl
SPECI SCFT 012119Z AUTO 28015KT 250V310 //// // ///////// 12/04 Q1015
Viento: dirección 280 grados, velocidad 15 nudos
Viento con dirección variable entre 250 y 310 grados
Temperatura: 12 °C
Rocío: 4 °C
Humedad_relativa: 58%
Presión: 1015 hPa
SPECI del 01-12-2021 a las 21:09 UTC
Para mayor información visite www.meteochile.cl
SPECI SCBA 012109Z AUTO 29035G49KT 9999 NCD 09/01 Q1005
Viento: dirección 290 grados, velocidad 35 nudos, con ráfagas de velocidad máxima de 49Nudos
Visibilidad: 10 km o más
Temperatura: 9 °C
Rocío: 1 °C
Humedad_relativa: 57%
Presión: 1005 hPa
SPECI del 01-12-2021 a las 21:09 UTC
Para mayor información visite www.meteochile.cl
SPECI SCBA 012109Z AUTO 29035G49KT 9999 NCD 09/01 Q1005
Viento: dirección 290 grados, velocidad 35 nudos, con ráfagas de velocidad máxima de 49Nudos
Visibilidad: 10 km o más
Temperatura: 9 °C
Rocío: 1 °C
Humedad_relativa: 57%
Presión: 1005 hPa
METAR del 01-12-2021 a las 21:00 UTC
Para mayor información visite www.meteochile.cl
METAR SCJO 012100Z 18005KT 9999 BKN025 OVC030 12/09 Q1018
Viento: dirección 180 grados, velocidad 5 nudos
Visibilidad: 10 km o más
Nubes: Nublado a 2500 pies sobre el nivel del aeródromo
Nubes: Cubierto a 3000 pies sobre el nivel del aeródromo
Temperatura: 12 °C
Rocío: 9 °C
Humedad_relativa: 82%
Presión: 1018 hPa
METAR del 01-12-2021 a las 21:00 UTC
Para mayor información visite www.meteochile.cl
METAR SCQP 012100Z 24010KT 210V270 9999 FEW032 OVC036 15/10 Q1018
Viento: dirección 240 grados, velocidad 10 nudos
Viento con dirección variable entre 210 y 270 grados
Visibilidad: 10 km o más
Nubes: Escasa nubosidad a 3200 pies sobre el nivel del aeródromo
Nubes: Cubierto a 3600 pies sobre el nivel del aeródromo
Temperatura: 15 °C
Rocío: 10 °C
Humedad_relativa: 72%
Presión: 1018 hPa
METAR del 01-12-2021 a las 21:00 UTC
Para mayor información visite www.meteochile.cl
METAR SCMK 012100Z 22016KT CAVOK 13/04 Q1018
Viento: dirección 220 grados, velocidad 16 nudos
Visibilidad: 10 km o más,
    sin nubes bajo los 5.000 pies o bajo del MSA (Mínimo de Seguridad del Aeródromo),
    sin cumulonimbus, y sin fenómenos de tiempo significativo en el aeródromo o alrededores
Temperatura: 13 °C
Rocío: 4 °C
Humedad_relativa: 54%
Presión: 1018 hPa
METAR del 01-12-2021 a las 21:00 UTC
Para mayor información visite www.meteochile.cl
METAR SCRG 012100Z 21011KT 9000 NSC 25/11 Q1015
Viento: dirección 210 grados, velocidad 11 nudos
Visibilidad: 9000 metros
Sin nubes bajo los 5000 pies o bajo del MSA (Mínimo de Seguridad del Aeródromo)
Temperatura: 25 °C
Rocío: 11 °C
Humedad_relativa: 41%
Presión: 1015 hPa
METAR del 01-12-2021 a las 21:00 UTC
Para mayor información visite www.meteochile.cl
METAR SCFM 012100Z 26019KT 9999 SCT030 13/01 Q1001
Viento: dirección 260 grados, velocidad 19 nudos
Visibilidad: 10 km o más
Nubes: Nubosidad parcial a 3000 pies sobre el nivel del aeródromo
Temperatura: 13 °C
Rocío: 1 °C
Humedad_relativa: 44%
Presión: 1001 hPa